Time;durP1;ratioP1;P1;durP2;ratioP2;P2;SDS_P1;SDS_P2;PMS_P1;PMS_P2;Temp;Humidity;BMP_temperature;BMP_pressure;BME280_temperature;BME280_humidity;BME280_pressure;Samples;Min_cycle;Max_cycle;Signal;HPM_P1;HPM_P2
2021/07/24 00:01:51;;;;;;;2.30;2.08;;;22.50;69.60;;;;;;5052796;28;20378;-42
2021/07/24 00:04:17;;;;;;;2.45;2.13;;;22.50;69.60;;;;;;5053554;28;20055;-42
2021/07/24 00:06:43;;;;;;;2.70;2.33;;;22.50;69.60;;;;;;5052683;28;20049;-41
2021/07/24 00:09:08;;;;;;;2.75;2.33;;;22.50;69.60;;;;;;5053142;28;20044;-43
2021/07/24 00:11:35;;;;;;;2.70;2.25;;;22.50;69.70;;;;;;5053248;28;20052;-41
2021/07/24 00:14:01;;;;;;;2.55;2.15;;;22.50;69.60;;;;;;5052967;28;20071;-45
2021/07/24 00:16:27;;;;;;;2.33;2.13;;;22.50;69.80;;;;;;5052942;28;20049;-42
2021/07/24 00:18:52;;;;;;;2.10;1.90;;;22.50;69.70;;;;;;5053029;28;20147;-43
2021/07/24 00:21:18;;;;;;;2.53;2.08;;;22.50;69.70;;;;;;5051695;28;20052;-43
2021/07/24 00:23:45;;;;;;;2.58;2.20;;;22.50;69.70;;;;;;5052926;28;20053;-39
2021/07/24 00:26:12;;;;;;;3.42;2.20;;;22.50;69.70;;;;;;5052744;28;20378;-43
2021/07/24 00:28:41;;;;;;;2.85;2.03;;;22.50;69.70;;;;;;5043035;28;20040;-43
2021/07/24 00:31:07;;;;;;;2.55;2.35;;;22.50;69.70;;;;;;5052723;28;20055;-46
2021/07/24 00:33:33;;;;;;;2.20;1.92;;;22.50;69.80;;;;;;5052463;28;20074;-42
2021/07/24 00:35:59;;;;;;;3.42;2.63;;;22.50;69.70;;;;;;5052812;28;20114;-49
2021/07/24 00:38:25;;;;;;;2.63;2.30;;;22.50;69.80;;;;;;5052406;28;20048;-47
2021/07/24 00:40:56;;;;;;;3.10;2.80;;;22.40;69.70;;;;;;5052596;28;20051;-40
2021/07/24 00:43:29;;;;;;;2.50;2.28;;;22.50;69.70;;;;;;5052126;28;20048;-42
2021/07/24 00:45:56;;;;;;;2.70;2.45;;;22.40;69.70;;;;;;5052189;28;20080;-43
2021/07/24 00:48:23;;;;;;;2.70;2.10;;;22.50;69.80;;;;;;5052507;28;20191;-41
2021/07/24 00:50:51;;;;;;;3.28;2.38;;;22.50;69.80;;;;;;5052347;28;20063;-46
2021/07/24 00:53:22;;;;;;;3.17;2.65;;;22.50;69.80;;;;;;5051742;28;20060;-41
2021/07/24 00:55:50;;;;;;;3.05;2.47;;;22.50;69.80;;;;;;5052358;28;20153;-40
2021/07/24 00:58:25;;;;;;;2.80;2.50;;;22.50;69.80;;;;;;5052727;28;20049;-39
2021/07/24 01:00:51;;;;;;;2.75;2.30;;;22.50;69.80;;;;;;5052473;28;20163;-42
2021/07/24 01:03:17;;;;;;;2.80;2.45;;;22.50;69.80;;;;;;5051716;28;20091;-40
2021/07/24 01:05:45;;;;;;;2.58;2.30;;;22.40;69.70;;;;;;5052322;28;20052;-40
2021/07/24 01:08:11;;;;;;;3.90;2.80;;;22.40;69.80;;;;;;5051779;28;20047;-44
2021/07/24 01:10:38;;;;;;;3.10;2.60;;;22.40;69.80;;;;;;5052574;28;20099;-43
2021/07/24 01:13:04;;;;;;;2.80;2.10;;;22.40;69.80;;;;;;5051133;28;20037;-44
2021/07/24 01:15:31;;;;;;;2.33;2.13;;;22.40;69.80;;;;;;5052636;28;20044;-45
2021/07/24 01:17:56;;;;;;;2.47;2.17;;;22.40;69.80;;;;;;5052106;28;20048;-46
2021/07/24 01:20:25;;;;;;;3.10;2.80;;;22.40;69.80;;;;;;5051963;28;20397;-44
2021/07/24 01:22:51;;;;;;;2.70;2.28;;;22.40;69.80;;;;;;5051723;28;20295;-40
2021/07/24 01:25:17;;;;;;;3.03;2.28;;;22.40;69.80;;;;;;5051698;28;20045;-39
2021/07/24 01:27:44;;;;;;;3.20;2.58;;;22.40;70.50;;;;;;5052267;28;20048;-41
2021/07/24 01:30:12;;;;;;;3.42;2.92;;;22.40;69.80;;;;;;5051809;28;20041;-44
2021/07/24 01:32:38;;;;;;;2.97;2.35;;;22.40;69.90;;;;;;5066766;28;20079;-42
2021/07/24 01:35:04;;;;;;;2.75;2.38;;;22.40;69.80;;;;;;5051940;28;20768;-45
2021/07/24 01:37:30;;;;;;;2.85;2.50;;;22.40;69.80;;;;;;5051808;28;20067;-45
2021/07/24 01:39:56;;;;;;;2.90;2.60;;;22.30;69.80;;;;;;5051507;28;20485;-43
2021/07/24 01:42:22;;;;;;;2.38;2.13;;;22.40;69.90;;;;;;5051575;28;20088;-42
2021/07/24 01:44:48;;;;;;;3.53;2.40;;;22.40;69.90;;;;;;5051809;28;20172;-42
2021/07/24 01:47:13;;;;;;;3.15;2.83;;;22.40;69.90;;;;;;5051382;28;20397;-44
2021/07/24 01:52:47;;;;;;;3.22;2.90;;;22.40;69.90;;;;;;5049505;28;20051;-44
2021/07/24 01:55:20;;;;;;;3.13;2.35;;;22.40;69.90;;;;;;5051019;28;20513;-45
2021/07/24 01:57:48;;;;;;;2.90;2.38;;;22.40;69.90;;;;;;5051418;28;20063;-42
2021/07/24 02:00:15;;;;;;;3.75;2.92;;;22.40;70.00;;;;;;5051845;28;20116;-47
2021/07/24 02:02:43;;;;;;;2.97;2.35;;;22.40;69.90;;;;;;5051802;28;20049;-42
2021/07/24 02:05:16;;;;;;;2.50;2.30;;;22.40;70.00;;;;;;5051817;28;20056;-43
2021/07/24 02:07:45;;;;;;;3.10;2.53;;;22.40;70.00;;;;;;5051238;28;20485;-43
2021/07/24 02:10:11;;;;;;;3.63;2.92;;;22.40;70.00;;;;;;5051399;28;20056;-43
2021/07/24 02:12:38;;;;;;;3.85;2.67;;;22.40;70.00;;;;;;5050992;28;20040;-43
2021/07/24 02:15:04;;;;;;;3.92;3.13;;;22.40;70.00;;;;;;5051119;28;20111;-44
2021/07/24 02:17:33;;;;;;;3.35;2.95;;;22.40;70.00;;;;;;5052029;28;20049;-42
2021/07/24 02:20:02;;;;;;;3.13;2.40;;;22.40;70.00;;;;;;5051533;28;20431;-40
2021/07/24 02:22:28;;;;;;;2.67;2.38;;;22.40;70.00;;;;;;5051031;28;20049;-41
2021/07/24 02:24:54;;;;;;;3.13;2.72;;;22.40;70.00;;;;;;5051550;28;20454;-42
2021/07/24 02:27:19;;;;;;;3.88;3.25;;;22.40;70.00;;;;;;5050988;28;20835;-43
2021/07/24 02:29:45;;;;;;;2.90;2.60;;;22.40;70.00;;;;;;5051287;28;20078;-43
2021/07/24 02:32:11;;;;;;;3.15;2.80;;;22.40;70.00;;;;;;5051125;28;20051;-41
2021/07/24 02:34:37;;;;;;;3.47;2.63;;;22.40;70.00;;;;;;5050927;28;20049;-42
2021/07/24 02:37:03;;;;;;;3.50;2.60;;;22.40;70.00;;;;;;5051606;28;20047;-42
2021/07/24 02:39:28;;;;;;;3.08;2.72;;;22.30;70.00;;;;;;5049749;28;20041;-43
2021/07/24 02:41:54;;;;;;;3.10;2.50;;;22.30;70.00;;;;;;5051511;28;20056;-43
2021/07/24 02:44:20;;;;;;;3.08;2.50;;;22.30;70.00;;;;;;5052381;28;20053;-44
2021/07/24 02:46:45;;;;;;;5.15;3.45;;;22.30;70.00;;;;;;5054875;28;20136;-40
2021/07/24 02:49:12;;;;;;;3.88;2.80;;;22.30;70.00;;;;;;5055045;28;20057;-42
2021/07/24 02:51:38;;;;;;;4.15;2.72;;;22.30;70.00;;;;;;5054964;28;20048;-40
2021/07/24 02:54:03;;;;;;;3.50;3.03;;;22.30;70.00;;;;;;5052894;28;20435;-48
2021/07/24 02:56:30;;;;;;;3.47;2.75;;;22.30;70.00;;;;;;5053425;28;20123;-41
2021/07/24 02:58:55;;;;;;;3.30;2.70;;;22.30;70.70;;;;;;5052985;28;20076;-42
2021/07/24 03:01:21;;;;;;;3.67;3.03;;;22.30;70.00;;;;;;5054083;28;20091;-43
2021/07/24 03:03:46;;;;;;;3.30;2.63;;;22.30;70.00;;;;;;5055081;28;20469;-42
2021/07/24 03:06:12;;;;;;;3.30;2.78;;;22.30;70.00;;;;;;5054238;28;20045;-46
2021/07/24 03:08:38;;;;;;;3.33;2.70;;;22.30;70.00;;;;;;5054015;28;20049;-44
2021/07/24 03:11:04;;;;;;;3.45;3.00;;;22.30;70.00;;;;;;5054508;28;20041;-44
2021/07/24 03:13:30;;;;;;;3.33;2.67;;;22.30;70.00;;;;;;5054320;28;20080;-43
2021/07/24 03:15:56;;;;;;;3.30;3.00;;;22.30;70.00;;;;;;5053535;28;20400;-45
2021/07/24 03:18:22;;;;;;;2.97;2.45;;;22.30;70.00;;;;;;5054328;28;20131;-47
2021/07/24 03:20:48;;;;;;;3.33;3.03;;;22.30;70.00;;;;;;5054270;28;20048;-44
2021/07/24 03:23:13;;;;;;;2.88;2.58;;;22.30;70.00;;;;;;5053903;28;20064;-44
2021/07/24 03:25:42;;;;;;;5.05;2.95;;;22.30;70.00;;;;;;5053582;28;20132;-45
2021/07/24 03:28:09;;;;;;;3.97;3.22;;;22.30;70.00;;;;;;5054218;28;20072;-46
2021/07/24 03:30:37;;;;;;;3.97;2.88;;;22.20;70.00;;;;;;5052649;28;20099;-44
2021/07/24 03:33:03;;;;;;;3.20;2.80;;;22.30;70.00;;;;;;5052736;28;20048;-47
2021/07/24 03:35:29;;;;;;;3.47;2.95;;;22.30;70.00;;;;;;5052834;28;20056;-44
2021/07/24 03:37:54;;;;;;;3.78;2.80;;;22.30;70.70;;;;;;5052899;28;20041;-43
2021/07/24 03:40:20;;;;;;;3.28;2.80;;;22.30;70.00;;;;;;5038514;28;20552;-44
2021/07/24 03:42:46;;;;;;;3.85;2.78;;;22.30;70.00;;;;;;5042254;28;20045;-43
2021/07/24 03:45:12;;;;;;;3.20;2.78;;;22.30;70.10;;;;;;5053436;28;20033;-45
2021/07/24 03:47:37;;;;;;;4.05;3.10;;;22.20;70.00;;;;;;5041492;28;20508;-45
2021/07/24 03:50:03;;;;;;;4.47;2.78;;;22.30;70.10;;;;;;5033987;28;20041;-47
2021/07/24 03:52:29;;;;;;;3.38;2.75;;;22.30;70.10;;;;;;5040552;28;20044;-45
2021/07/24 03:54:57;;;;;;;4.32;3.50;;;22.30;70.10;;;;;;5049404;28;20485;-43
2021/07/24 03:57:24;;;;;;;3.95;3.45;;;22.30;70.10;;;;;;5051629;28;20382;-39
2021/07/24 03:59:54;;;;;;;3.50;2.80;;;22.30;70.10;;;;;;5053662;28;20041;-44
2021/07/24 04:02:24;;;;;;;3.85;2.92;;;22.30;70.10;;;;;;5040726;28;20046;-43
2021/07/24 04:04:52;;;;;;;4.15;3.17;;;22.30;70.10;;;;;;5053763;28;20049;-45
2021/07/24 04:07:20;;;;;;;3.38;2.90;;;22.20;70.00;;;;;;5052107;28;20044;-44
2021/07/24 04:09:46;;;;;;;3.80;3.08;;;22.20;70.00;;;;;;5037355;28;20056;-45
2021/07/24 04:12:12;;;;;;;3.67;3.28;;;22.20;70.00;;;;;;5052333;28;20471;-45
2021/07/24 04:14:37;;;;;;;4.15;3.25;;;22.20;70.00;;;;;;5053517;28;20515;-42
2021/07/24 04:17:04;;;;;;;3.80;3.33;;;22.20;70.00;;;;;;5041267;28;20046;-41
2021/07/24 04:19:31;;;;;;;3.83;3.05;;;22.20;70.00;;;;;;5034725;28;20053;-40
2021/07/24 04:21:56;;;;;;;4.32;3.20;;;22.20;70.00;;;;;;5052955;28;20047;-45
2021/07/24 04:24:22;;;;;;;4.35;2.92;;;22.20;70.00;;;;;;5053080;28;20412;-45
2021/07/24 04:26:49;;;;;;;4.45;2.85;;;22.20;70.00;;;;;;5051199;28;20052;-45
2021/07/24 04:29:15;;;;;;;3.78;3.22;;;22.20;70.00;;;;;;5051220;28;20500;-45
2021/07/24 04:31:41;;;;;;;3.53;2.92;;;22.20;70.00;;;;;;5045457;28;20072;-42
2021/07/24 04:34:07;;;;;;;3.22;2.80;;;22.20;70.00;;;;;;5032726;28;20052;-41
2021/07/24 04:36:33;;;;;;;3.40;3.00;;;22.20;70.00;;;;;;5034646;28;20065;-42
2021/07/24 04:38:58;;;;;;;3.00;2.60;;;22.20;70.10;;;;;;5040706;28;20067;-41
2021/07/24 04:41:25;;;;;;;3.80;2.85;;;22.20;70.00;;;;;;5038954;28;20489;-41
2021/07/24 04:43:50;;;;;;;3.25;2.70;;;22.10;70.00;;;;;;5051223;28;20045;-43
2021/07/24 04:46:16;;;;;;;3.75;3.00;;;22.20;70.00;;;;;;5052528;28;20048;-41
2021/07/24 04:48:42;;;;;;;3.80;3.03;;;22.20;70.10;;;;;;5039083;28;20502;-43
2021/07/24 04:51:08;;;;;;;3.40;3.10;;;22.20;70.10;;;;;;5033699;28;20045;-47
2021/07/24 04:53:34;;;;;;;3.78;3.15;;;22.10;70.10;;;;;;5032643;28;20054;-46
2021/07/24 04:56:06;;;;;;;3.70;3.25;;;22.20;70.10;;;;;;5032947;28;20073;-41
2021/07/24 04:58:33;;;;;;;3.88;3.10;;;22.20;70.10;;;;;;5033099;28;20052;-44
2021/07/24 05:00:59;;;;;;;3.80;3.08;;;22.10;70.70;;;;;;5033919;28;20056;-40
2021/07/24 05:03:25;;;;;;;3.55;2.92;;;22.20;70.10;;;;;;5032289;28;20049;-43
2021/07/24 05:05:53;;;;;;;4.30;3.03;;;22.10;70.00;;;;;;5032420;28;20049;-42
2021/07/24 05:08:20;;;;;;;3.47;2.72;;;22.20;70.10;;;;;;5040381;28;20045;-46
2021/07/24 05:10:46;;;;;;;3.85;3.10;;;22.20;70.10;;;;;;5032303;28;20041;-41
2021/07/24 05:13:12;;;;;;;3.90;3.20;;;22.10;70.00;;;;;;5033798;28;20115;-43
2021/07/24 05:15:38;;;;;;;5.03;3.10;;;22.10;70.00;;;;;;5032601;28;20482;-46
2021/07/24 05:18:05;;;;;;;3.60;3.30;;;22.20;70.10;;;;;;5045153;28;20045;-42
2021/07/24 05:20:31;;;;;;;3.45;3.00;;;22.10;70.10;;;;;;5040972;28;20052;-39
2021/07/24 05:22:57;;;;;;;3.40;2.97;;;22.10;70.00;;;;;;5046457;28;20094;-44
2021/07/24 05:25:24;;;;;;;3.25;2.95;;;22.10;70.00;;;;;;5052169;28;20045;-43
2021/07/24 05:27:51;;;;;;;3.35;2.88;;;22.10;70.10;;;;;;5045045;28;20053;-42
2021/07/24 05:30:17;;;;;;;3.78;3.20;;;22.10;70.00;;;;;;5046648;28;20127;-42
2021/07/24 05:32:43;;;;;;;4.20;3.47;;;22.10;70.10;;;;;;5050046;28;20128;-40
2021/07/24 05:35:10;;;;;;;4.35;3.20;;;22.10;70.00;;;;;;5051648;28;20045;-46
2021/07/24 05:37:36;;;;;;;3.67;3.10;;;22.10;70.10;;;;;;5051405;28;20049;-41
2021/07/24 05:40:05;;;;;;;4.18;3.05;;;22.10;70.10;;;;;;5032723;28;20056;-46
2021/07/24 05:42:31;;;;;;;3.58;2.92;;;22.10;70.10;;;;;;5033685;28;20081;-43
2021/07/24 05:44:57;;;;;;;3.88;2.90;;;22.10;70.10;;;;;;5041787;28;20537;-43
2021/07/24 05:47:22;;;;;;;3.40;2.80;;;22.10;70.70;;;;;;5044581;28;20103;-43
2021/07/24 05:49:50;;;;;;;3.38;2.60;;;22.10;70.10;;;;;;5048315;28;20044;-38
2021/07/24 05:52:16;;;;;;;3.55;3.08;;;22.10;70.10;;;;;;5051689;28;20048;-45
2021/07/24 05:54:41;;;;;;;4.07;3.30;;;22.10;70.10;;;;;;5051601;28;20374;-42
2021/07/24 05:57:07;;;;;;;3.70;3.08;;;22.10;70.10;;;;;;5051899;28;20048;-40
2021/07/24 05:59:35;;;;;;;3.90;3.20;;;22.10;70.10;;;;;;5051459;28;20051;-43
2021/07/24 06:02:05;;;;;;;3.15;2.63;;;22.10;70.10;;;;;;5052182;28;20052;-43
2021/07/24 06:04:32;;;;;;;3.88;3.28;;;22.10;70.10;;;;;;5051989;28;20053;-43
2021/07/24 06:06:59;;;;;;;3.17;2.78;;;22.20;70.10;;;;;;5051188;28;20076;-46
2021/07/24 06:09:27;;;;;;;3.58;3.08;;;22.10;70.10;;;;;;5051122;28;20497;-43
2021/07/24 06:11:53;;;;;;;3.67;3.00;;;22.10;70.10;;;;;;5052118;28;20045;-43
2021/07/24 06:14:19;;;;;;;3.38;2.70;;;22.10;70.10;;;;;;5051738;28;20486;-42
2021/07/24 06:16:44;;;;;;;3.67;3.15;;;22.10;70.10;;;;;;5051975;28;20072;-43
2021/07/24 06:19:10;;;;;;;3.30;2.97;;;22.10;70.10;;;;;;5053335;28;20052;-46
2021/07/24 06:21:36;;;;;;;3.80;3.13;;;22.10;70.00;;;;;;5055493;28;20128;-42
2021/07/24 06:24:01;;;;;;;3.20;2.90;;;22.10;70.00;;;;;;5055062;28;20091;-41
2021/07/24 06:26:27;;;;;;;5.75;3.40;;;22.10;70.00;;;;;;5055438;28;20053;-43
2021/07/24 06:28:53;;;;;;;3.78;3.00;;;22.10;70.00;;;;;;5054020;28;20076;-42
2021/07/24 06:31:18;;;;;;;3.88;2.90;;;22.10;70.00;;;;;;5050900;28;20504;-40
2021/07/24 06:33:45;;;;;;;4.10;3.40;;;22.10;69.90;;;;;;5051923;28;20052;-45
2021/07/24 06:36:11;;;;;;;3.97;3.25;;;22.10;69.90;;;;;;5051446;28;20527;-41
2021/07/24 06:38:36;;;;;;;3.40;3.00;;;22.10;70.00;;;;;;5050981;28;20565;-41
2021/07/24 06:41:05;;;;;;;4.05;3.00;;;22.10;69.90;;;;;;5038916;28;20061;-47
2021/07/24 06:43:31;;;;;;;5.07;3.60;;;22.10;69.90;;;;;;5051422;28;20055;-42
2021/07/24 06:45:57;;;;;;;3.80;3.03;;;22.10;69.90;;;;;;5051202;28;20040;-41
2021/07/24 06:48:23;;;;;;;4.15;3.10;;;22.10;70.00;;;;;;5051161;28;20763;-39
2021/07/24 06:50:49;;;;;;;4.03;3.20;;;22.10;69.90;;;;;;5051818;28;20075;-40
2021/07/24 06:53:14;;;;;;;4.15;3.72;;;22.10;69.90;;;;;;5050882;28;20061;-46
2021/07/24 06:55:40;;;;;;;3.42;2.97;;;22.10;69.80;;;;;;5051810;28;20049;-46
2021/07/24 06:58:06;;;;;;;4.80;3.10;;;22.10;69.80;;;;;;5050957;28;20041;-50
2021/07/24 07:00:32;;;;;;;3.92;3.03;;;22.10;69.80;;;;;;5051195;28;20052;-41
2021/07/24 07:03:00;;;;;;;8.20;5.43;;;22.10;70.40;;;;;;5051331;28;20485;-49
2021/07/24 07:05:30;;;;;;;7.95;5.05;;;22.10;69.30;;;;;;5051308;28;20048;-48
2021/07/24 07:07:56;;;;;;;7.40;4.78;;;22.10;68.90;;;;;;5051125;28;20118;-45
2021/07/24 07:10:22;;;;;;;10.15;5.95;;;22.10;68.80;;;;;;5050092;28;20077;-45
2021/07/24 07:12:48;;;;;;;9.60;6.28;;;22.20;68.00;;;;;;5051190;28;20106;-45
2021/07/24 07:15:14;;;;;;;8.13;6.13;;;22.40;67.60;;;;;;5051172;28;20127;-47
2021/07/24 07:17:40;;;;;;;8.88;5.82;;;22.40;67.30;;;;;;5051200;28;20644;-48
2021/07/24 07:20:06;;;;;;;9.70;6.13;;;22.50;67.10;;;;;;5050709;28;20138;-46
2021/07/24 07:22:32;;;;;;;7.07;5.22;;;22.40;67.10;;;;;;5050536;28;20425;-48
2021/07/24 07:24:58;;;;;;;6.95;5.35;;;22.40;67.20;;;;;;5050323;28;20056;-44
2021/07/24 07:27:23;;;;;;;7.03;5.70;;;22.40;67.30;;;;;;5051041;28;20820;-50
2021/07/24 07:29:49;;;;;;;7.80;5.22;;;22.40;67.40;;;;;;5050156;28;20045;-49
2021/07/24 07:32:15;;;;;;;7.22;4.75;;;22.40;67.40;;;;;;5050843;28;20505;-47
2021/07/24 07:34:41;;;;;;;8.13;5.00;;;22.40;67.60;;;;;;5050392;28;20045;-46
2021/07/24 07:37:06;;;;;;;7.18;4.97;;;22.40;67.70;;;;;;5050681;28;20049;-47
2021/07/24 07:39:32;;;;;;;6.90;5.20;;;22.40;67.70;;;;;;5049901;28;20037;-47
2021/07/24 07:41:58;;;;;;;6.05;4.63;;;22.40;68.50;;;;;;5050345;28;20045;-49
2021/07/24 07:44:24;;;;;;;6.78;5.03;;;22.40;68.00;;;;;;5050830;28;20562;-47
2021/07/24 07:46:53;;;;;;;7.28;5.10;;;22.40;68.10;;;;;;5050391;28;20049;-46
2021/07/24 07:49:19;;;;;;;6.25;5.05;;;22.40;68.10;;;;;;5050098;28;20140;-46
2021/07/24 07:51:44;;;;;;;5.70;4.68;;;22.40;68.20;;;;;;5050464;28;20140;-49
2021/07/24 07:54:10;;;;;;;6.15;4.50;;;22.40;68.30;;;;;;5050049;28;20421;-44
2021/07/24 07:56:37;;;;;;;7.57;4.40;;;22.40;68.40;;;;;;5050144;28;20055;-46
2021/07/24 07:59:03;;;;;;;5.85;4.35;;;22.40;68.50;;;;;;5049979;28;20049;-48
2021/07/24 08:01:29;;;;;;;6.53;4.20;;;22.40;69.20;;;;;;5048865;28;20071;-48
2021/07/24 08:03:55;;;;;;;5.32;4.03;;;22.40;68.60;;;;;;5050134;28;20060;-47
2021/07/24 08:06:21;;;;;;;6.03;4.55;;;22.40;68.70;;;;;;5049817;28;20041;-48
2021/07/24 08:08:47;;;;;;;5.75;4.45;;;22.40;68.70;;;;;;5033030;28;20136;-47
2021/07/24 08:11:14;;;;;;;4.82;4.32;;;22.40;68.80;;;;;;5044178;28;20051;-44
2021/07/24 08:13:40;;;;;;;5.50;3.92;;;22.40;68.80;;;;;;5050166;28;20051;-46
2021/07/24 08:16:15;;;;;;;5.55;4.30;;;22.40;68.90;;;;;;5049840;28;20065;-48
2021/07/24 08:18:41;;;;;;;5.15;4.03;;;22.40;68.90;;;;;;5049713;28;20051;-49
2021/07/24 08:21:07;;;;;;;5.50;4.07;;;22.40;69.00;;;;;;5049289;28;20140;-47
2021/07/24 08:23:33;;;;;;;5.63;4.47;;;22.40;69.10;;;;;;5049703;28;20132;-43
2021/07/24 08:25:58;;;;;;;4.82;3.75;;;22.40;69.00;;;;;;5049384;28;20846;-47
2021/07/24 08:28:29;;;;;;;5.55;4.10;;;22.40;69.10;;;;;;5049603;28;20135;-48
2021/07/24 08:30:55;;;;;;;4.95;4.00;;;22.40;69.10;;;;;;5049244;28;20125;-50
2021/07/24 08:33:21;;;;;;;4.50;3.58;;;22.40;69.10;;;;;;5049100;28;20527;-48
2021/07/24 08:35:47;;;;;;;5.00;3.47;;;22.40;69.10;;;;;;5049210;28;20045;-49
2021/07/24 08:38:13;;;;;;;4.53;3.72;;;22.50;69.20;;;;;;5049577;28;20126;-49
2021/07/24 08:40:38;;;;;;;5.50;3.80;;;22.50;69.20;;;;;;5048661;28;20051;-45
2021/07/24 08:43:06;;;;;;;5.28;3.67;;;22.50;69.20;;;;;;5048582;28;20052;-44
2021/07/24 08:45:33;;;;;;;5.05;3.35;;;22.50;69.20;;;;;;5049308;28;20059;-45
2021/07/24 08:48:00;;;;;;;4.40;3.35;;;22.50;69.20;;;;;;5049045;28;20095;-47
2021/07/24 08:50:26;;;;;;;4.50;3.30;;;22.50;69.20;;;;;;5048995;28;20060;-47
2021/07/24 08:52:56;;;;;;;3.95;3.55;;;22.50;69.30;;;;;;5049387;28;20132;-46
2021/07/24 08:55:23;;;;;;;4.75;3.05;;;22.50;69.20;;;;;;5049064;28;20785;-44
2021/07/24 08:57:57;;;;;;;4.20;3.75;;;22.50;69.40;;;;;;5049117;28;20161;-45
2021/07/24 09:00:24;;;;;;;4.00;3.22;;;22.50;69.20;;;;;;5048880;28;20056;-44
2021/07/24 09:02:52;;;;;;;3.38;2.83;;;22.50;69.20;;;;;;5048863;28;20441;-47
2021/07/24 09:05:19;;;;;;;3.92;3.33;;;22.50;69.20;;;;;;5049181;28;20596;-45
2021/07/24 09:07:46;;;;;;;4.97;3.75;;;22.60;69.20;;;;;;5048647;28;20056;-46
2021/07/24 09:10:13;;;;;;;3.88;3.38;;;22.60;69.20;;;;;;5048634;28;20260;-45
2021/07/24 09:12:41;;;;;;;3.75;3.05;;;22.60;69.20;;;;;;5048909;28;20049;-52
2021/07/24 09:15:09;;;;;;;4.15;3.45;;;22.60;69.20;;;;;;5048694;28;20080;-48
2021/07/24 09:17:36;;;;;;;4.78;3.33;;;22.60;69.20;;;;;;5048606;28;20139;-47
2021/07/24 09:20:02;;;;;;;4.13;3.03;;;22.60;69.20;;;;;;5048651;28;20102;-47
2021/07/24 09:22:33;;;;;;;4.32;3.33;;;22.60;69.10;;;;;;5048213;28;20053;-45
2021/07/24 09:25:18;;;;;;;3.65;3.10;;;22.60;69.20;;;;;;5048830;28;20049;-49
2021/07/24 09:27:51;;;;;;;;;;;22.60;69.10;;;;;;5049177;28;20121;-48
2021/07/24 09:30:28;;;;;;;3.80;2.90;;;22.70;69.80;;;;;;5048290;28;20005;-44
2021/07/24 09:33:14;;;;;;;3.70;2.95;;;22.70;69.20;;;;;;5048163;28;20738;-48
2021/07/24 09:35:40;;;;;;;;;;;22.70;69.10;;;;;;5049149;28;20045;-44
2021/07/24 09:38:11;;;;;;;4.43;2.78;;;22.70;69.20;;;;;;5048545;28;20296;-44
2021/07/24 09:40:38;;;;;;;4.25;2.88;;;22.70;69.10;;;;;;5048519;28;20052;-45
2021/07/24 09:43:24;;;;;;;3.55;2.90;;;22.70;69.10;;;;;;5048304;28;20053;-46
2021/07/24 09:46:14;;;;;;;3.25;2.70;;;22.70;69.10;;;;;;5047959;28;20095;-44
2021/07/24 09:48:43;;;;;;;3.88;3.05;;;22.80;69.10;;;;;;5048540;28;20123;-44
2021/07/24 09:51:10;;;;;;;4.45;2.85;;;22.80;69.20;;;;;;5048331;28;20052;-46
2021/07/24 09:53:43;;;;;;;3.45;3.15;;;22.80;69.10;;;;;;5050736;28;20110;-44
2021/07/24 09:56:17;;;;;;;3.35;2.60;;;22.80;69.20;;;;;;5052358;28;20076;-47
2021/07/24 09:58:44;;;;;;;3.88;2.60;;;22.80;69.10;;;;;;5052244;28;20083;-46
2021/07/24 10:01:11;;;;;;;3.80;2.90;;;22.80;69.10;;;;;;5052165;28;20055;-45
2021/07/24 10:03:39;;;;;;;3.20;2.75;;;22.80;69.10;;;;;;5051804;28;20049;-43
2021/07/24 10:06:13;;;;;;;3.38;3.08;;;22.80;69.10;;;;;;5052526;28;20053;-49
2021/07/24 10:08:48;;;;;;;3.85;2.70;;;22.80;69.10;;;;;;5051833;28;20048;-45
2021/07/24 10:11:13;;;;;;;3.85;2.95;;;22.90;69.10;;;;;;5051998;28;20048;-47
2021/07/24 10:13:42;;;;;;;3.92;3.00;;;22.90;69.10;;;;;;5051961;28;20072;-46
2021/07/24 10:16:08;;;;;;;3.60;2.90;;;22.90;69.10;;;;;;5052399;28;20049;-47
2021/07/24 10:18:34;;;;;;;3.13;2.72;;;22.90;69.10;;;;;;5051652;28;20512;-48
2021/07/24 10:21:00;;;;;;;3.35;2.90;;;22.90;69.00;;;;;;5052152;28;20540;-46
2021/07/24 10:23:26;;;;;;;3.38;3.00;;;23.00;69.00;;;;;;5051577;28;20084;-46
2021/07/24 10:26:12;;;;;;;4.57;3.00;;;23.00;69.00;;;;;;5052076;28;20673;-47
2021/07/24 10:28:53;;;;;;;4.10;3.22;;;23.00;68.90;;;;;;5051446;28;20195;-44
2021/07/24 10:31:40;;;;;;;3.15;2.85;;;23.00;68.80;;;;;;5032137;28;20057;-44
2021/07/24 10:34:07;;;;;;;4.38;2.85;;;23.00;68.80;;;;;;5031145;28;20490;-45
2021/07/24 10:36:42;;;;;;;3.50;2.88;;;23.00;68.80;;;;;;5032402;28;20049;-49
2021/07/24 10:39:17;;;;;;;3.90;2.80;;;23.00;68.80;;;;;;5035151;28;20462;-48
2021/07/24 10:41:44;;;;;;;3.65;2.72;;;23.00;68.70;;;;;;5051788;28;20057;-44
2021/07/24 10:44:11;;;;;;;3.35;2.95;;;23.00;68.70;;;;;;5051682;28;20045;-45
2021/07/24 10:46:40;;;;;;;5.20;3.15;;;23.10;68.70;;;;;;5051365;28;20139;-45
2021/07/24 10:49:06;;;;;;;3.53;3.20;;;23.10;68.70;;;;;;5050770;28;20049;-46
2021/07/24 10:51:53;;;;;;;3.50;2.72;;;23.10;68.70;;;;;;5051722;28;20206;-48
2021/07/24 10:54:19;;;;;;;4.25;2.95;;;23.10;68.60;;;;;;5049430;28;20057;-45
2021/07/24 10:56:45;;;;;;;3.28;2.65;;;23.10;68.60;;;;;;5051511;28;20182;-46
2021/07/24 10:59:13;;;;;;;3.78;2.60;;;23.20;68.60;;;;;;5050628;28;20045;-45
2021/07/24 11:01:53;;;;;;;3.45;3.13;;;23.10;68.50;;;;;;5031288;28;20416;-49
2021/07/24 11:04:37;;;;;;;4.20;3.35;;;23.20;68.50;;;;;;5030334;28;20049;-44
2021/07/24 11:07:12;;;;;;;3.67;2.97;;;23.20;68.50;;;;;;5031361;28;20057;-47
2021/07/24 11:09:39;;;;;;;3.92;2.95;;;23.20;68.50;;;;;;5034553;28;20118;-44
2021/07/24 11:12:09;;;;;;;4.32;3.40;;;23.20;68.50;;;;;;5050918;28;20052;-47
2021/07/24 11:14:38;;;;;;;4.00;2.92;;;23.20;68.40;;;;;;5051223;28;20055;-47
2021/07/24 11:17:04;;;;;;;3.38;3.00;;;23.20;68.40;;;;;;5051193;28;20533;-47
2021/07/24 11:19:29;;;;;;;3.13;2.80;;;23.20;68.40;;;;;;5050802;28;20135;-47
2021/07/24 11:22:17;;;;;;;3.85;2.95;;;23.20;68.40;;;;;;5050644;28;20063;-48
2021/07/24 11:24:50;;;;;;;3.65;3.00;;;23.20;68.30;;;;;;5050850;28;20413;-45
2021/07/24 11:27:30;;;;;;;4.38;3.72;;;23.30;68.40;;;;;;5050917;28;20061;-45
2021/07/24 11:30:02;;;;;;;3.60;3.05;;;23.30;68.30;;;;;;5050390;28;20630;-45
2021/07/24 11:32:33;;;;;;;4.32;3.22;;;23.30;68.30;;;;;;5050911;28;20052;-49
2021/07/24 11:35:00;;;;;;;3.80;2.90;;;23.30;68.30;;;;;;5050062;28;20128;-47
2021/07/24 11:37:42;;;;;;;5.88;3.90;;;23.30;68.30;;;;;;5050749;28;20088;-48
2021/07/24 11:40:13;;;;;;;3.65;3.13;;;23.30;68.30;;;;;;5050303;28;20045;-45
2021/07/24 11:42:40;;;;;;;4.93;4.10;;;23.30;68.20;;;;;;5050875;28;20045;-50
2021/07/24 11:45:06;;;;;;;4.13;3.38;;;23.30;68.20;;;;;;5050666;28;20052;-44
2021/07/24 11:47:31;;;;;;;4.30;3.40;;;23.40;68.20;;;;;;5049898;28;20155;-46
2021/07/24 11:50:17;;;;;;;4.55;3.78;;;23.40;68.20;;;;;;5050026;28;20842;-47
2021/07/24 11:52:47;;;;;;;4.00;3.22;;;23.40;68.10;;;;;;5030487;28;20053;-44
2021/07/24 11:55:13;;;;;;;3.78;3.20;;;23.40;68.10;;;;;;5010779;28;20053;-48
2021/07/24 11:57:41;;;;;;;4.25;3.35;;;23.40;68.10;;;;;;5028863;28;20057;-46
2021/07/24 12:00:08;;;;;;;3.75;3.08;;;23.40;68.10;;;;;;5029158;28;20121;-46
2021/07/24 12:02:34;;;;;;;3.88;3.08;;;23.40;68.10;;;;;;5029579;28;20056;-46
2021/07/24 12:04:59;;;;;;;3.88;3.42;;;23.50;68.20;;;;;;5030243;28;20435;-49
2021/07/24 12:07:25;;;;;;;3.53;2.80;;;23.40;68.10;;;;;;5029691;28;20801;-47
2021/07/24 12:09:52;;;;;;;4.35;3.47;;;23.40;68.10;;;;;;5030243;28;20056;-49
2021/07/24 12:12:24;;;;;;;3.65;3.30;;;23.50;68.10;;;;;;5028461;28;20057;-47
2021/07/24 12:14:56;;;;;;;3.78;3.15;;;23.50;68.00;;;;;;5029910;28;20413;-48
2021/07/24 12:17:25;;;;;;;3.75;3.15;;;23.50;68.00;;;;;;5029193;28;20049;-47
2021/07/24 12:19:51;;;;;;;3.95;3.05;;;23.50;68.00;;;;;;5029821;28;20544;-46
2021/07/24 12:22:24;;;;;;;5.20;3.35;;;23.50;68.00;;;;;;5014157;28;20108;-48
2021/07/24 12:24:51;;;;;;;3.10;2.80;;;23.50;68.00;;;;;;5010276;28;20042;-48
2021/07/24 12:27:20;;;;;;;3.72;3.13;;;23.50;67.90;;;;;;5010341;28;20057;-47
2021/07/24 12:29:58;;;;;;;4.20;3.08;;;23.60;68.00;;;;;;5010184;28;20058;-47
2021/07/24 12:32:36;;;;;;;3.38;2.92;;;23.50;67.90;;;;;;5020620;28;20049;-46
2021/07/24 12:35:20;;;;;;;4.63;3.45;;;23.50;67.90;;;;;;5022552;28;20041;-48
2021/07/24 12:37:46;;;;;;;4.53;3.45;;;23.50;67.90;;;;;;5019799;28;20509;-46
2021/07/24 12:40:16;;;;;;;3.92;3.25;;;23.50;67.90;;;;;;5019451;28;20133;-48
2021/07/24 12:42:43;;;;;;;3.70;3.17;;;23.50;67.90;;;;;;5019543;28;20498;-48
2021/07/24 12:45:22;;;;;;;3.78;3.10;;;23.50;67.90;;;;;;5019073;28;20411;-47
2021/07/24 12:47:48;;;;;;;4.38;3.17;;;23.60;68.50;;;;;;5019635;28;20045;-47
2021/07/24 12:50:18;;;;;;;4.55;3.58;;;23.60;67.90;;;;;;5019552;28;20093;-46
2021/07/24 12:52:52;;;;;;;4.35;3.47;;;23.60;67.90;;;;;;5018324;28;20077;-47
2021/07/24 12:55:23;;;;;;;4.20;3.38;;;23.60;67.80;;;;;;5047708;28;20528;-45